createdAt,value
2022-11-05T00:01:32.473Z,8.60
2022-11-05T00:04:53.286Z,8.93
2022-11-05T00:08:14.009Z,7.60
2022-11-05T00:11:18.315Z,7.47
2022-11-05T00:14:39.066Z,5.93
2022-11-05T00:17:41.674Z,6.93
2022-11-05T00:20:44.219Z,5.63
2022-11-05T00:24:04.650Z,6.20
2022-11-05T00:27:07.107Z,6.33
2022-11-05T00:30:09.923Z,6.17
2022-11-05T00:33:12.432Z,7.47
2022-11-05T00:36:14.776Z,6.57
2022-11-05T00:39:17.115Z,7.77
2022-11-05T00:42:37.747Z,6.23
2022-11-05T00:45:41.156Z,6.93
2022-11-05T00:49:01.847Z,7.57
2022-11-05T00:52:23.099Z,7.27
2022-11-05T00:55:34.411Z,7.03
2022-11-05T00:58:36.487Z,7.73
2022-11-05T01:01:38.664Z,8.43
2022-11-05T01:04:40.783Z,7.17
2022-11-05T01:07:43.002Z,7.13
2022-11-05T01:10:51.491Z,6.40
2022-11-05T01:13:53.671Z,6.27
2022-11-05T01:16:56.849Z,6.40
2022-11-05T01:19:59.174Z,7.87
2022-11-05T01:23:01.420Z,7.50
2022-11-05T01:26:03.734Z,7.10
2022-11-05T01:29:05.856Z,7.87
2022-11-05T01:32:10.997Z,7.00
2022-11-05T01:35:15.396Z,6.70
2022-11-05T01:38:18.352Z,7.40
2022-11-05T01:41:20.567Z,7.63
2022-11-05T01:44:50.378Z,6.97
2022-11-05T01:48:05.517Z,6.50
2022-11-05T01:54:18.560Z,6.97
2022-11-05T01:57:21.356Z,6.57
2022-11-05T02:00:23.603Z,5.73
2022-11-05T02:03:26.978Z,7.17
2022-11-05T02:06:32.786Z,6.57
2022-11-05T02:09:51.100Z,6.47
2022-11-05T02:12:53.336Z,6.27
2022-11-05T02:16:13.398Z,6.60
2022-11-05T02:19:36.589Z,5.90
2022-11-05T02:22:57.015Z,6.17
2022-11-05T02:26:11.282Z,5.80
2022-11-05T02:29:50.680Z,6.50
2022-11-05T02:33:24.978Z,7.07
2022-11-05T02:36:43.919Z,7.53
2022-11-05T02:39:53.123Z,7.27
2022-11-05T02:43:15.461Z,7.67
2022-11-05T02:47:03.758Z,5.10
2022-11-05T02:50:17.802Z,5.40
2022-11-05T02:53:41.237Z,7.83
2022-11-05T02:56:48.512Z,6.93
2022-11-05T03:00:21.200Z,7.23
2022-11-05T03:03:42.187Z,6.67
2022-11-05T03:07:14.748Z,7.50
2022-11-05T03:10:25.591Z,5.67
2022-11-05T03:13:53.613Z,6.67
2022-11-05T03:17:16.130Z,7.10
2022-11-05T03:20:34.391Z,5.67
2022-11-05T03:23:57.135Z,6.13
2022-11-05T03:27:06.155Z,7.03
2022-11-05T03:30:11.593Z,5.93
2022-11-05T03:33:21.354Z,5.20
2022-11-05T03:36:37.845Z,5.97
2022-11-05T03:39:44.370Z,7.77
2022-11-05T03:42:50.693Z,8.77
2022-11-05T03:45:59.572Z,5.73
2022-11-05T03:49:04.557Z,7.37
2022-11-05T03:52:15.636Z,6.70
2022-11-05T03:55:17.905Z,8.87
2022-11-05T03:58:22.881Z,6.60
2022-11-05T04:01:25.623Z,5.75
2022-11-05T04:04:27.978Z,5.43
2022-11-05T04:07:48.476Z,6.13
2022-11-05T04:11:09.059Z,7.13
2022-11-05T04:14:11.475Z,6.80
2022-11-05T04:17:13.544Z,8.67
2022-11-05T04:20:34.042Z,7.73
2022-11-05T04:23:54.674Z,6.77
2022-11-05T04:26:57.152Z,8.20
2022-11-05T04:30:17.928Z,6.83
2022-11-05T04:33:20.067Z,7.07
2022-11-05T04:36:22.245Z,6.30
2022-11-05T04:39:25.269Z,6.90
2022-11-05T04:42:28.303Z,6.57
2022-11-05T04:45:34.480Z,7.33
2022-11-05T04:48:37.720Z,7.27
2022-11-05T04:51:39.992Z,6.37
2022-11-05T04:54:42.275Z,8.57
2022-11-05T04:57:47.130Z,7.03
2022-11-05T05:00:50.172Z,7.67
2022-11-05T05:03:54.015Z,7.20
2022-11-05T05:06:57.066Z,6.72
2022-11-05T05:09:59.737Z,6.37
2022-11-05T05:13:02.034Z,6.57
2022-11-05T05:16:17.662Z,9.20
2022-11-05T05:19:25.127Z,6.33
2022-11-05T05:22:27.525Z,7.03
2022-11-05T05:25:31.646Z,6.72
2022-11-05T05:28:33.957Z,7.17
2022-11-05T05:31:38.088Z,7.17
2022-11-05T05:34:40.481Z,6.75
2022-11-05T05:37:43.094Z,6.03
2022-11-05T05:40:45.268Z,7.43
2022-11-05T05:43:47.488Z,7.90
2022-11-05T05:46:50.589Z,6.40
2022-11-05T05:49:52.962Z,7.30
2022-11-05T05:52:55.170Z,6.67
2022-11-05T05:55:58.284Z,8.00
2022-11-05T05:59:00.427Z,6.87
2022-11-05T06:02:02.741Z,7.10
2022-11-05T06:05:05.485Z,6.63
2022-11-05T06:08:07.579Z,8.43
2022-11-05T06:11:10.072Z,7.23
2022-11-05T06:14:13.254Z,7.53
2022-11-05T06:17:15.332Z,6.97
2022-11-05T06:20:17.611Z,5.73
2022-11-05T06:23:19.714Z,9.50
2022-11-05T06:26:21.844Z,8.73
2022-11-05T06:29:24.040Z,8.83
2022-11-05T06:32:26.212Z,7.13
2022-11-05T06:35:28.346Z,7.40
2022-11-05T06:38:33.689Z,7.97
2022-11-05T06:41:56.905Z,7.50
2022-11-05T06:44:57.962Z,7.03
2022-11-05T06:48:00.435Z,7.13
2022-11-05T06:51:03.476Z,8.77
2022-11-05T06:54:08.339Z,7.57
2022-11-05T06:57:11.447Z,7.18
2022-11-05T07:00:15.062Z,7.40
2022-11-05T07:03:17.588Z,7.70
2022-11-05T07:06:19.646Z,7.90
2022-11-05T07:09:21.717Z,7.80
2022-11-05T07:12:23.955Z,8.83
2022-11-05T07:15:26.108Z,7.33
2022-11-05T07:18:29.848Z,7.77
2022-11-05T07:21:31.992Z,11.00
2022-11-05T07:24:34.216Z,7.43
2022-11-05T07:27:40.223Z,7.60
2022-11-05T07:30:42.492Z,8.10
2022-11-05T07:33:44.666Z,7.83
2022-11-05T07:36:47.653Z,8.43
2022-11-05T07:39:49.647Z,7.77
2022-11-05T07:42:54.204Z,7.37
2022-11-05T07:45:56.477Z,9.23
2022-11-05T07:48:58.594Z,7.68
2022-11-05T07:52:00.576Z,9.00
2022-11-05T07:55:02.948Z,6.82
2022-11-05T07:58:06.064Z,8.57
2022-11-05T08:01:08.342Z,7.57
2022-11-05T08:04:11.269Z,7.40
2022-11-05T08:07:13.427Z,8.10
2022-11-05T08:10:15.461Z,8.35
2022-11-05T08:13:18.747Z,8.88
2022-11-05T08:16:20.850Z,6.43
2022-11-05T08:19:23.087Z,7.93
2022-11-05T08:22:25.220Z,6.85
2022-11-05T08:25:28.037Z,6.80
2022-11-05T08:28:30.391Z,6.25
2022-11-05T08:31:32.912Z,5.18
2022-11-05T08:34:35.200Z,5.55
2022-11-05T08:37:37.337Z,6.03
2022-11-05T08:40:40.773Z,6.73
2022-11-05T08:43:42.883Z,5.53
2022-11-05T08:46:45.040Z,4.18
2022-11-05T08:49:47.279Z,5.45
2022-11-05T08:52:49.399Z,5.13
2022-11-05T08:55:51.902Z,6.10
2022-11-05T08:58:53.955Z,4.55
2022-11-05T09:01:56.794Z,4.85
2022-11-05T09:04:59.019Z,5.28
2022-11-05T09:08:01.743Z,5.45
2022-11-05T09:11:03.982Z,4.60
2022-11-05T09:14:06.981Z,4.50
2022-11-05T09:17:20.972Z,4.43
2022-11-05T09:20:23.722Z,4.20
2022-11-05T09:23:25.922Z,3.53
2022-11-05T09:26:28.105Z,4.28
2022-11-05T09:29:30.132Z,4.55
2022-11-05T09:32:37.981Z,4.72
2022-11-05T09:35:41.557Z,5.53
2022-11-05T09:41:47.042Z,4.38
2022-11-05T09:44:51.276Z,5.45
2022-11-05T09:47:58.386Z,4.68
2022-11-05T09:51:01.780Z,4.72
2022-11-05T09:54:05.641Z,4.95
2022-11-05T09:57:14.981Z,5.63
2022-11-05T10:00:18.095Z,6.38
2022-11-05T10:03:23.346Z,3.97
2022-11-05T10:06:27.983Z,5.43
2022-11-05T10:09:45.394Z,5.38
2022-11-05T10:12:53.398Z,4.13
2022-11-05T10:16:46.181Z,3.80
2022-11-05T10:20:11.095Z,5.15
2022-11-05T10:23:16.446Z,4.45
2022-11-05T10:26:26.864Z,4.50
2022-11-05T10:29:34.495Z,4.28
2022-11-05T10:32:42.460Z,4.70
2022-11-05T10:35:54.760Z,4.55
2022-11-05T10:39:13.129Z,3.58
2022-11-05T10:42:32.814Z,3.38
2022-11-05T10:45:47.164Z,3.15
2022-11-05T10:49:19.718Z,2.50
2022-11-05T10:52:31.377Z,2.90
2022-11-05T10:55:38.494Z,3.63
2022-11-05T10:58:57.651Z,3.47
2022-11-05T11:02:26.380Z,2.67
2022-11-05T11:05:36.449Z,3.75
2022-11-05T11:08:43.783Z,2.38
2022-11-05T11:11:46.138Z,2.90
2022-11-05T11:15:02.473Z,3.78
2022-11-05T11:18:25.588Z,4.30
2022-11-05T11:21:29.632Z,3.22
2022-11-05T11:24:38.935Z,2.65
2022-11-05T11:27:41.210Z,4.28
2022-11-05T11:30:49.331Z,3.05
2022-11-05T11:33:59.198Z,4.13
2022-11-05T11:37:20.317Z,3.42
2022-11-05T11:40:38.085Z,3.03
2022-11-05T11:43:41.851Z,4.68
2022-11-05T11:46:50.087Z,3.13
2022-11-05T11:50:00.440Z,3.33
2022-11-05T11:53:21.016Z,2.97
2022-11-05T11:56:23.200Z,3.10
2022-11-05T11:59:54.001Z,4.22
2022-11-05T12:03:02.109Z,3.63
2022-11-05T12:06:16.348Z,4.15
2022-11-05T12:09:28.265Z,4.10
2022-11-05T12:13:13.841Z,4.90
2022-11-05T12:16:42.211Z,3.63
2022-11-05T12:20:09.948Z,4.07
2022-11-05T12:23:57.443Z,4.15
2022-11-05T12:27:33.908Z,3.53
2022-11-05T12:31:03.281Z,3.10
2022-11-05T12:34:27.294Z,3.15
2022-11-05T12:37:35.387Z,3.63
2022-11-05T12:40:58.760Z,3.55
2022-11-05T12:44:37.284Z,3.40
2022-11-05T12:48:00.577Z,2.85
2022-11-05T12:51:28.458Z,3.35
2022-11-05T12:54:53.935Z,3.97
2022-11-05T12:58:04.486Z,3.97
2022-11-05T13:01:18.123Z,3.25
2022-11-05T13:04:44.163Z,3.75
2022-11-05T13:08:07.545Z,3.95
2022-11-05T13:11:25.052Z,3.47
2022-11-05T13:14:42.577Z,4.07
2022-11-05T13:18:05.860Z,2.90
2022-11-05T13:21:10.746Z,5.10
2022-11-05T13:24:31.124Z,4.60
2022-11-05T13:27:48.482Z,5.13
2022-11-05T13:30:57.957Z,6.30
2022-11-05T13:34:04.414Z,5.13
2022-11-05T13:37:27.516Z,4.60
2022-11-05T13:41:01.952Z,6.13
2022-11-05T13:44:51.401Z,4.15
2022-11-05T13:47:56.280Z,4.70
2022-11-05T13:51:38.695Z,4.47
2022-11-05T13:55:03.942Z,5.78
2022-11-05T13:58:33.838Z,4.53
2022-11-05T14:01:48.054Z,5.25
2022-11-05T14:05:00.505Z,6.07
2022-11-05T14:08:18.635Z,4.28
2022-11-05T14:11:20.739Z,3.67
2022-11-05T14:14:27.344Z,4.78
2022-11-05T14:17:34.529Z,3.17
2022-11-05T14:20:36.908Z,4.10
2022-11-05T14:23:51.322Z,4.97
2022-11-05T14:27:02.674Z,4.93
2022-11-05T14:30:42.080Z,4.03
2022-11-05T14:34:01.353Z,5.07
2022-11-05T14:37:22.506Z,3.97
2022-11-05T14:40:42.512Z,3.63
2022-11-05T14:43:54.697Z,4.38
2022-11-05T14:47:00.478Z,5.97
2022-11-05T14:50:09.228Z,4.78
2022-11-05T14:53:29.966Z,3.95
2022-11-05T14:56:53.309Z,4.88
2022-11-05T15:00:00.950Z,5.22
2022-11-05T15:03:46.196Z,3.40
2022-11-05T15:07:04.941Z,4.85
2022-11-05T15:10:11.999Z,4.05
2022-11-05T15:13:38.723Z,5.18
2022-11-05T15:16:48.980Z,5.15
2022-11-05T15:19:52.390Z,4.20
2022-11-05T15:23:00.768Z,4.18
2022-11-05T15:26:21.822Z,3.53
2022-11-05T15:29:28.365Z,3.42
2022-11-05T15:32:34.543Z,3.25
2022-11-05T15:35:41.640Z,2.70
2022-11-05T15:42:22.371Z,3.42
2022-11-05T15:45:24.832Z,3.17
2022-11-05T15:48:27.043Z,2.30
2022-11-05T15:51:30.732Z,3.03
2022-11-05T15:54:33.083Z,2.95
2022-11-05T15:57:40.034Z,3.03
2022-11-05T16:00:47.641Z,2.97
2022-11-05T16:03:53.158Z,3.78
2022-11-05T16:06:58.481Z,3.63
2022-11-05T16:10:02.091Z,3.33
2022-11-05T16:13:43.855Z,3.67
2022-11-05T16:16:49.441Z,3.95
2022-11-05T16:19:52.092Z,3.80
2022-11-05T16:23:06.451Z,3.22
2022-11-05T16:26:55.868Z,5.07
2022-11-05T16:29:51.851Z,4.18
2022-11-05T16:32:54.409Z,3.45
2022-11-05T16:35:56.613Z,4.40
2022-11-05T16:38:59.634Z,5.30
2022-11-05T16:42:01.900Z,3.72
2022-11-05T16:45:04.769Z,4.43
2022-11-05T16:48:09.096Z,3.85
2022-11-05T16:51:11.997Z,4.95
2022-11-05T16:54:14.315Z,4.22
2022-11-05T16:57:31.180Z,3.70
2022-11-05T17:00:33.572Z,3.65
2022-11-05T17:03:36.272Z,4.15
2022-11-05T17:06:39.196Z,3.70
2022-11-05T17:09:41.542Z,3.58
2022-11-05T17:12:43.896Z,3.60
2022-11-05T17:15:48.102Z,3.78
2022-11-05T17:21:52.680Z,4.30
2022-11-05T17:24:55.132Z,4.57
2022-11-05T17:27:58.108Z,6.03
2022-11-05T17:31:02.120Z,5.18
2022-11-05T17:34:04.389Z,5.45
2022-11-05T17:37:06.575Z,5.90
2022-11-05T17:40:13.810Z,4.97
2022-11-05T17:43:16.388Z,4.97
2022-11-05T17:46:19.324Z,5.05
2022-11-05T17:49:21.488Z,6.28
2022-11-05T17:52:23.865Z,7.72
2022-11-05T17:55:27.400Z,6.85
2022-11-05T17:58:30.700Z,7.38
2022-11-05T18:01:35.708Z,6.43
2022-11-05T18:04:39.824Z,6.75
2022-11-05T18:07:42.874Z,8.95
2022-11-05T18:10:45.122Z,9.13
2022-11-05T18:13:47.310Z,8.02
2022-11-05T18:16:51.198Z,7.85
2022-11-05T18:19:53.573Z,7.80
2022-11-05T18:22:55.703Z,8.48
2022-11-05T18:25:57.878Z,8.43
2022-11-05T18:29:04.848Z,7.45
2022-11-05T18:32:07.250Z,8.48
2022-11-05T18:35:10.152Z,8.88
2022-11-05T18:38:12.794Z,9.63
2022-11-05T18:41:15.466Z,8.00
2022-11-05T18:44:22.802Z,9.10
2022-11-05T18:47:25.065Z,9.50
2022-11-05T18:50:27.866Z,7.57
2022-11-05T18:53:30.222Z,8.85
2022-11-05T18:56:32.827Z,9.73
2022-11-05T18:59:38.775Z,8.88
2022-11-05T19:02:42.020Z,9.63
2022-11-05T19:05:44.313Z,9.02
2022-11-05T19:08:47.309Z,11.25
2022-11-05T19:11:49.766Z,9.80
2022-11-05T19:14:51.812Z,11.10
2022-11-05T19:17:54.065Z,9.63
2022-11-05T19:20:56.342Z,10.65
2022-11-05T19:24:01.582Z,9.60
2022-11-05T19:27:04.776Z,10.77
2022-11-05T19:30:07.255Z,9.07
2022-11-05T19:33:09.370Z,10.20
2022-11-05T19:36:12.843Z,10.10
2022-11-05T19:39:15.333Z,11.50
2022-11-05T19:42:17.597Z,11.93
2022-11-05T19:48:43.880Z,9.57
2022-11-05T19:51:46.009Z,10.97
2022-11-05T19:54:47.987Z,11.43
2022-11-05T19:57:50.999Z,9.27
2022-11-05T20:00:55.707Z,13.25
2022-11-05T20:03:59.560Z,12.03
2022-11-05T20:07:02.829Z,11.13
2022-11-05T20:10:06.662Z,11.20
2022-11-05T20:13:08.768Z,11.07
2022-11-05T20:16:22.487Z,10.80
2022-11-05T20:19:24.598Z,11.17
2022-11-05T20:22:27.028Z,11.90
2022-11-05T20:25:30.666Z,12.20
2022-11-05T20:28:34.097Z,11.90
2022-11-05T20:31:36.445Z,12.23
2022-11-05T20:34:39.074Z,12.32
2022-11-05T20:37:41.388Z,11.52
2022-11-05T20:40:43.499Z,12.80
2022-11-05T20:43:46.946Z,12.63
2022-11-05T20:46:49.158Z,14.18
2022-11-05T20:49:51.877Z,15.10
2022-11-05T20:52:53.953Z,15.07
2022-11-05T20:55:56.313Z,15.70
2022-11-05T20:59:00.154Z,14.80
2022-11-05T21:02:02.578Z,14.90
2022-11-05T21:05:05.401Z,17.75
2022-11-05T21:08:08.246Z,15.07
2022-11-05T21:11:10.759Z,14.13
2022-11-05T21:14:12.791Z,13.17
2022-11-05T21:17:15.370Z,14.43
2022-11-05T21:20:18.757Z,12.63
2022-11-05T21:23:20.995Z,13.57
2022-11-05T21:26:23.227Z,13.20
2022-11-05T21:29:26.493Z,13.10
2022-11-05T21:32:28.756Z,13.93
2022-11-05T21:35:31.255Z,14.90
2022-11-05T21:38:33.424Z,13.77
2022-11-05T21:41:36.833Z,17.47
2022-11-05T21:44:39.982Z,12.43
2022-11-05T21:47:42.527Z,13.23
2022-11-05T21:51:03.979Z,12.57
2022-11-05T21:54:25.455Z,13.43
2022-11-05T21:57:48.011Z,10.87
2022-11-05T22:00:50.282Z,10.67
2022-11-05T22:03:52.488Z,10.77
2022-11-05T22:06:54.508Z,11.17
2022-11-05T22:09:57.070Z,9.93
2022-11-05T22:12:59.354Z,10.13
2022-11-05T22:16:01.573Z,9.50
2022-11-05T22:19:03.759Z,9.87
2022-11-05T22:22:06.871Z,9.73
2022-11-05T22:25:09.933Z,9.23
2022-11-05T22:28:12.259Z,11.53
2022-11-05T22:31:15.961Z,9.43
2022-11-05T22:34:18.511Z,8.73
2022-11-05T22:37:20.560Z,9.93
2022-11-05T22:40:24.173Z,11.87
2022-11-05T22:43:27.696Z,10.65
2022-11-05T22:46:30.701Z,10.17
2022-11-05T22:49:34.450Z,10.63
2022-11-05T22:52:36.507Z,10.50
2022-11-05T22:55:39.996Z,10.30
2022-11-05T22:58:42.495Z,10.30
2022-11-05T23:01:45.894Z,10.77
2022-11-05T23:04:49.636Z,11.10
2022-11-05T23:08:10.414Z,10.53
2022-11-05T23:11:36.209Z,9.70
2022-11-05T23:14:38.330Z,9.10
2022-11-05T23:18:00.982Z,9.73
2022-11-05T23:21:23.216Z,10.47
2022-11-05T23:24:26.512Z,9.57
2022-11-05T23:27:30.952Z,9.57
2022-11-05T23:30:33.483Z,9.80
2022-11-05T23:33:37.489Z,11.15
2022-11-05T23:36:57.970Z,9.13
2022-11-05T23:40:00.281Z,8.73
2022-11-05T23:43:21.045Z,8.60
2022-11-05T23:46:42.167Z,8.80
2022-11-05T23:49:44.247Z,8.03
2022-11-05T23:52:47.144Z,7.33
2022-11-05T23:55:50.085Z,8.83
2022-11-05T23:58:53.862Z,8.23
